createdAt,value
2023-04-11T00:00:18.567Z,95.78
2023-04-11T00:03:06.350Z,96.34
2023-04-11T00:05:34.326Z,95.99
2023-04-11T00:08:02.044Z,96.22
2023-04-11T00:10:29.993Z,96.67
2023-04-11T00:12:57.830Z,96.17
2023-04-11T00:15:25.699Z,96.36
2023-04-11T00:17:53.760Z,96.48
2023-04-11T00:20:22.157Z,96.63
2023-04-11T00:22:49.975Z,96.51
2023-04-11T00:25:17.881Z,96.77
2023-04-11T00:27:45.969Z,96.91
2023-04-11T00:30:13.890Z,97.55
2023-04-11T00:32:41.864Z,97.37
2023-04-11T00:35:09.595Z,97.87
2023-04-11T00:37:37.438Z,97.90
2023-04-11T00:40:05.662Z,97.72
2023-04-11T00:42:33.763Z,97.93
2023-04-11T00:45:01.713Z,98.18
2023-04-11T00:47:32.167Z,98.28
2023-04-11T00:50:00.317Z,98.18
2023-04-11T00:52:28.245Z,97.86
2023-04-11T00:54:56.112Z,97.86
2023-04-11T00:57:24.190Z,98.06
2023-04-11T00:59:52.060Z,98.25
2023-04-11T01:02:20.061Z,98.45
2023-04-11T01:04:48.013Z,98.43
2023-04-11T01:07:16.174Z,98.41
2023-04-11T01:09:44.291Z,98.46
2023-04-11T01:12:12.475Z,98.43
2023-04-11T01:14:43.739Z,98.73
2023-04-11T01:17:11.612Z,98.51
2023-04-11T01:19:39.316Z,98.21
2023-04-11T01:22:07.978Z,98.66
2023-04-11T01:24:35.965Z,98.79
2023-04-11T01:27:03.739Z,98.85
2023-04-11T01:29:31.963Z,99.24
2023-04-11T01:32:02.291Z,98.85
2023-04-11T01:34:31.027Z,98.57
2023-04-11T01:36:59.052Z,98.27
2023-04-11T01:39:26.841Z,98.17
2023-04-11T01:41:55.539Z,98.33
2023-04-11T01:44:24.352Z,98.56
2023-04-11T01:46:52.266Z,98.59
2023-04-11T01:49:19.994Z,98.75
2023-04-11T01:51:48.263Z,99.11
2023-04-11T01:54:15.962Z,98.94
2023-04-11T01:56:43.816Z,98.82
2023-04-11T01:59:11.569Z,98.81
2023-04-11T02:01:42.587Z,98.48
2023-04-11T02:04:10.678Z,98.70
2023-04-11T02:06:42.146Z,98.82
2023-04-11T02:09:09.886Z,98.94
2023-04-11T02:11:37.980Z,98.99
2023-04-11T02:14:05.759Z,99.37
2023-04-11T02:16:33.464Z,99.77
2023-04-11T02:19:01.549Z,99.81
2023-04-11T02:21:32.106Z,99.77
2023-04-11T02:24:00.717Z,99.60
2023-04-11T02:26:28.793Z,99.83
2023-04-11T02:28:57.317Z,99.13
2023-04-11T02:31:25.228Z,99.29
2023-04-11T02:33:53.339Z,99.19
2023-04-11T02:36:21.148Z,99.16
2023-04-11T02:38:48.851Z,99.28
2023-04-11T02:41:16.805Z,99.33
2023-04-11T02:43:44.956Z,99.03
2023-04-11T02:46:13.453Z,99.22
2023-04-11T02:48:46.729Z,99.34
2023-04-11T02:51:14.937Z,99.59
2023-04-11T02:53:47.978Z,99.93
2023-04-11T02:56:18.770Z,100.00
2023-04-11T02:58:48.281Z,99.98
2023-04-11T03:01:17.559Z,99.95
2023-04-11T03:03:45.738Z,99.98
2023-04-11T03:06:13.924Z,99.95
2023-04-11T03:08:42.036Z,99.99
2023-04-11T03:11:13.015Z,99.98
2023-04-11T03:13:41.907Z,99.97
2023-04-11T03:16:10.002Z,99.81
2023-04-11T03:18:37.915Z,99.92
2023-04-11T03:21:07.603Z,99.98
2023-04-11T03:23:35.803Z,99.92
2023-04-11T03:26:04.729Z,99.92
2023-04-11T03:28:33.682Z,99.79
2023-04-11T03:31:01.722Z,99.78
2023-04-11T03:33:29.718Z,99.94
2023-04-11T03:35:57.663Z,99.88
2023-04-11T03:38:25.720Z,99.71
2023-04-11T03:40:53.765Z,99.78
2023-04-11T03:43:26.577Z,100.00
2023-04-11T03:45:58.025Z,100.00
2023-04-11T03:48:43.991Z,99.96
2023-04-11T03:51:11.791Z,100.00
2023-04-11T03:53:45.073Z,100.00
2023-04-11T03:56:24.235Z,100.00
2023-04-11T03:58:53.475Z,100.00
2023-04-11T04:01:24.631Z,100.00
2023-04-11T04:03:59.228Z,100.00
2023-04-11T04:06:38.293Z,100.00
2023-04-11T04:09:09.906Z,100.00
2023-04-11T04:11:48.050Z,100.00
2023-04-11T04:14:17.392Z,99.88
2023-04-11T04:16:45.393Z,99.91
2023-04-11T04:19:13.937Z,100.00
2023-04-11T04:21:45.033Z,100.00
2023-04-11T04:24:13.241Z,100.00
2023-04-11T04:26:55.879Z,100.00
2023-04-11T04:29:36.501Z,100.00
2023-04-11T04:32:05.569Z,100.00
2023-04-11T04:34:42.393Z,100.00
2023-04-11T04:37:13.291Z,100.00
2023-04-11T04:39:41.813Z,100.00
2023-04-11T04:42:10.141Z,100.00
2023-04-11T04:44:40.284Z,100.00
2023-04-11T04:47:15.744Z,100.00
2023-04-11T04:49:44.195Z,100.00
2023-04-11T04:52:12.790Z,99.99
2023-04-11T04:54:40.548Z,99.88
2023-04-11T04:57:09.116Z,100.00
2023-04-11T04:59:36.930Z,99.99
2023-04-11T05:02:10.441Z,99.85
2023-04-11T05:04:38.450Z,99.76
2023-04-11T05:07:06.307Z,99.28
2023-04-11T05:09:35.128Z,98.71
2023-04-11T05:12:09.718Z,98.86
2023-04-11T05:14:38.603Z,98.88
2023-04-11T05:17:06.556Z,98.91
2023-04-11T05:19:35.432Z,98.90
2023-04-11T05:22:04.290Z,98.66
2023-04-11T05:24:33.023Z,98.56
2023-04-11T05:27:02.028Z,98.64
2023-04-11T05:29:30.028Z,98.61
2023-04-11T05:32:01.828Z,98.27
2023-04-11T05:34:32.829Z,97.78
2023-04-11T05:37:00.921Z,98.20
2023-04-11T05:39:28.737Z,97.30
2023-04-11T05:41:57.307Z,97.83
2023-04-11T05:44:25.143Z,98.08
2023-04-11T05:46:52.898Z,97.51
2023-04-11T05:49:20.864Z,97.62
2023-04-11T05:51:48.817Z,98.11
2023-04-11T05:54:30.706Z,97.90
2023-04-11T05:56:58.577Z,98.10
2023-04-11T05:59:28.337Z,98.29
2023-04-11T06:01:56.757Z,98.30
2023-04-11T06:04:25.070Z,98.60
2023-04-11T06:06:53.665Z,98.48
2023-04-11T06:09:21.522Z,97.63
2023-04-11T06:11:49.485Z,97.89
2023-04-11T06:14:17.533Z,98.16
2023-04-11T06:16:53.018Z,98.34
2023-04-11T06:19:20.849Z,98.21
2023-04-11T06:21:48.639Z,97.85
2023-04-11T06:24:16.398Z,97.70
2023-04-11T06:26:44.423Z,97.99
2023-04-11T06:29:12.165Z,97.34
2023-04-11T06:31:40.329Z,97.11
2023-04-11T06:34:08.328Z,95.97
2023-04-11T06:36:36.341Z,96.59
2023-04-11T06:39:04.306Z,96.49
2023-04-11T06:41:32.403Z,96.28
2023-04-11T06:44:00.363Z,96.75
2023-04-11T06:46:28.416Z,97.26
2023-04-11T06:48:58.473Z,97.24
2023-04-11T06:51:31.931Z,97.31
2023-04-11T06:54:08.603Z,96.83
2023-04-11T06:57:05.704Z,97.42
2023-04-11T06:59:45.741Z,97.60
2023-04-11T07:02:14.354Z,97.29
2023-04-11T07:05:03.185Z,97.40
2023-04-11T07:07:31.322Z,97.52
2023-04-11T07:09:59.295Z,97.83
2023-04-11T07:12:30.466Z,97.63
2023-04-11T07:14:58.647Z,97.53
2023-04-11T07:17:26.944Z,97.68
2023-04-11T07:20:03.251Z,97.25
2023-04-11T07:22:33.852Z,97.00
2023-04-11T07:25:09.774Z,97.08
2023-04-11T07:27:38.409Z,97.38
2023-04-11T07:30:15.380Z,97.44
2023-04-11T07:32:50.914Z,97.22
2023-04-11T07:35:32.283Z,96.66
2023-04-11T07:38:03.670Z,96.22
2023-04-11T07:40:41.498Z,95.70
2023-04-11T07:43:15.036Z,95.38
2023-04-11T07:45:48.694Z,95.20
2023-04-11T07:48:16.709Z,93.70
2023-04-11T07:50:44.582Z,91.58
2023-04-11T07:53:18.147Z,89.93
2023-04-11T07:56:18.019Z,87.13
2023-04-11T07:58:57.864Z,84.08
2023-04-11T08:01:48.589Z,83.76
2023-04-11T08:04:19.306Z,84.25
2023-04-11T08:06:52.293Z,83.87
2023-04-11T08:09:42.909Z,82.93
2023-04-11T08:12:13.930Z,81.98
2023-04-11T08:15:09.479Z,81.46
2023-04-11T08:17:47.146Z,80.31
2023-04-11T08:20:27.270Z,79.47
2023-04-11T08:22:57.657Z,78.45
2023-04-11T08:25:25.699Z,77.10
2023-04-11T08:27:53.708Z,76.38
2023-04-11T08:30:24.248Z,74.86
2023-04-11T08:32:52.231Z,73.27
2023-04-11T08:35:20.363Z,72.22
2023-04-11T08:37:48.291Z,72.16
2023-04-11T08:40:19.039Z,70.83
2023-04-11T08:42:50.191Z,69.66
2023-04-11T08:45:20.582Z,70.35
2023-04-11T08:47:54.608Z,69.53
2023-04-11T08:50:27.794Z,69.67
2023-04-11T08:53:00.793Z,70.42
2023-04-11T08:55:31.797Z,70.29
2023-04-11T08:58:19.975Z,70.12
2023-04-11T09:00:48.043Z,69.16
2023-04-11T09:03:16.708Z,69.68
2023-04-11T09:05:45.585Z,69.16
2023-04-11T09:08:14.591Z,67.72
2023-04-11T09:10:45.608Z,67.76
2023-04-11T09:13:24.537Z,67.23
2023-04-11T09:16:12.775Z,67.77
2023-04-11T09:19:01.903Z,67.18
2023-04-11T09:21:30.830Z,65.83
2023-04-11T09:24:15.476Z,65.73
2023-04-11T09:26:49.019Z,65.87
2023-04-11T09:29:46.244Z,65.03
2023-04-11T09:32:34.514Z,63.89
2023-04-11T09:35:09.073Z,62.95
2023-04-11T09:37:58.162Z,62.41
2023-04-11T09:40:27.360Z,62.81
2023-04-11T09:43:01.817Z,61.05
2023-04-11T09:45:32.162Z,60.52
2023-04-11T09:48:14.670Z,58.87
2023-04-11T09:50:49.338Z,56.72
2023-04-11T09:53:17.677Z,55.75
2023-04-11T09:55:48.206Z,55.49
2023-04-11T09:58:31.257Z,55.86
2023-04-11T10:01:25.299Z,55.94
2023-04-11T10:03:53.753Z,55.02
2023-04-11T10:06:27.973Z,55.37
2023-04-11T10:09:09.363Z,54.71
2023-04-11T10:12:03.150Z,54.05
2023-04-11T10:14:42.730Z,54.84
2023-04-11T10:17:17.673Z,55.00
2023-04-11T10:19:58.212Z,54.95
2023-04-11T10:23:01.842Z,55.26
2023-04-11T10:26:09.869Z,53.56
2023-04-11T10:28:57.937Z,53.24
2023-04-11T10:32:02.506Z,52.38
2023-04-11T10:34:57.044Z,51.79
2023-04-11T10:37:48.338Z,52.26
2023-04-11T10:40:16.330Z,50.80
2023-04-11T10:43:05.218Z,48.75
2023-04-11T10:45:47.641Z,49.37
2023-04-11T10:48:41.907Z,49.04
2023-04-11T10:51:51.361Z,48.25
2023-04-11T10:54:47.416Z,45.98
2023-04-11T10:57:56.399Z,45.49
2023-04-11T11:00:48.048Z,44.95
2023-04-11T11:03:31.031Z,45.24
2023-04-11T11:06:07.030Z,44.82
2023-04-11T11:08:36.181Z,45.02
2023-04-11T11:11:08.708Z,45.05
2023-04-11T11:13:55.785Z,45.15
2023-04-11T11:16:45.133Z,43.99
2023-04-11T11:19:36.864Z,42.65
2023-04-11T11:22:14.453Z,42.86
2023-04-11T11:24:45.680Z,44.07
2023-04-11T11:27:43.126Z,44.35
2023-04-11T11:30:31.790Z,45.43
2023-04-11T11:36:43.594Z,42.31
2023-04-11T11:39:12.291Z,39.24
2023-04-11T11:42:00.494Z,39.12
2023-04-11T11:44:48.808Z,38.98
2023-04-11T11:47:29.635Z,39.50
2023-04-11T11:50:24.577Z,39.94
2023-04-11T11:52:58.092Z,41.37
2023-04-11T11:55:35.397Z,41.55
2023-04-11T11:58:15.624Z,41.15
2023-04-11T12:00:55.261Z,40.69
2023-04-11T12:03:43.727Z,38.51
2023-04-11T12:06:17.620Z,36.99
2023-04-11T12:09:23.045Z,36.64
2023-04-11T12:11:54.727Z,37.73
2023-04-11T12:14:23.187Z,38.62
2023-04-11T12:17:04.824Z,37.16
2023-04-11T12:19:46.548Z,37.31
2023-04-11T12:22:35.158Z,37.97
2023-04-11T12:25:26.686Z,39.72
2023-04-11T12:27:57.475Z,39.99
2023-04-11T12:30:30.018Z,39.54
2023-04-11T12:33:03.241Z,38.99
2023-04-11T12:35:41.798Z,37.12
2023-04-11T12:38:41.320Z,36.18
2023-04-11T12:41:31.010Z,36.12
2023-04-11T12:44:25.284Z,36.10
2023-04-11T12:47:03.025Z,35.25
2023-04-11T12:49:31.398Z,34.95
2023-04-11T12:52:08.764Z,34.72
2023-04-11T12:55:07.070Z,35.43
2023-04-11T12:57:44.805Z,36.64
2023-04-11T13:00:25.550Z,35.58
2023-04-11T13:03:17.304Z,34.53
2023-04-11T13:06:20.095Z,33.33
2023-04-11T13:09:11.692Z,32.54
2023-04-11T13:12:21.518Z,31.55
2023-04-11T13:14:49.373Z,31.32
2023-04-11T13:17:17.270Z,30.87
2023-04-11T13:19:53.594Z,29.87
2023-04-11T13:22:45.719Z,29.19
2023-04-11T13:25:13.927Z,30.84
2023-04-11T13:27:59.673Z,32.07
2023-04-11T13:30:28.339Z,33.23
2023-04-11T13:33:17.021Z,33.26
2023-04-11T13:35:47.864Z,32.20
2023-04-11T13:38:30.873Z,31.70
2023-04-11T13:40:59.337Z,31.00
2023-04-11T13:43:30.149Z,29.65
2023-04-11T13:46:00.893Z,28.35
2023-04-11T13:48:29.034Z,28.03
2023-04-11T13:50:59.256Z,27.81
2023-04-11T13:53:31.034Z,27.48
2023-04-11T13:56:02.105Z,27.47
2023-04-11T13:58:36.397Z,28.18
2023-04-11T14:01:04.492Z,28.70
2023-04-11T14:03:38.294Z,29.13
2023-04-11T14:06:06.646Z,29.30
2023-04-11T14:08:48.590Z,30.09
2023-04-11T14:11:43.584Z,30.57
2023-04-11T14:17:55.301Z,29.87
2023-04-11T14:20:34.339Z,29.87
2023-04-11T14:23:31.105Z,30.07
2023-04-11T14:26:30.545Z,30.27
2023-04-11T14:29:23.177Z,31.20
2023-04-11T14:32:21.262Z,31.80
2023-04-11T14:35:02.365Z,32.71
2023-04-11T14:37:52.678Z,33.76
2023-04-11T14:40:41.246Z,34.42
2023-04-11T14:43:49.555Z,35.27
2023-04-11T14:46:27.340Z,35.81
2023-04-11T14:49:35.375Z,36.71
2023-04-11T14:52:18.247Z,37.55
2023-04-11T14:55:26.351Z,37.73
2023-04-11T14:58:01.943Z,37.87
2023-04-11T15:00:40.010Z,38.42
2023-04-11T15:03:28.452Z,38.82
2023-04-11T15:06:12.790Z,39.72
2023-04-11T15:09:02.523Z,40.38
2023-04-11T15:11:46.677Z,40.55
2023-04-11T15:14:35.502Z,41.01
2023-04-11T15:17:27.524Z,41.62
2023-04-11T15:19:55.865Z,41.95
2023-04-11T15:22:47.170Z,42.06
2023-04-11T15:25:27.806Z,41.95
2023-04-11T15:27:55.737Z,42.18
2023-04-11T15:30:23.608Z,42.23
2023-04-11T15:33:05.292Z,42.61
2023-04-11T15:35:55.106Z,43.52
2023-04-11T15:38:42.324Z,43.94
2023-04-11T15:41:15.457Z,44.32
2023-04-11T15:43:55.265Z,44.69
2023-04-11T15:46:36.932Z,45.02
2023-04-11T15:49:25.514Z,45.76
2023-04-11T15:52:31.573Z,46.34
2023-04-11T15:55:14.846Z,46.92
2023-04-11T15:58:02.981Z,47.23
2023-04-11T16:00:51.512Z,48.44
2023-04-11T16:03:32.682Z,48.86
2023-04-11T16:06:01.402Z,49.62
2023-04-11T16:08:49.595Z,50.54
2023-04-11T16:11:40.094Z,51.46
2023-04-11T16:14:28.476Z,52.28
2023-04-11T16:17:19.268Z,53.29
2023-04-11T16:19:49.650Z,54.18
2023-04-11T16:22:26.650Z,54.90
2023-04-11T16:24:57.118Z,55.90
2023-04-11T16:27:35.201Z,56.30
2023-04-11T16:30:04.389Z,57.08
2023-04-11T16:32:32.659Z,58.15
2023-04-11T16:35:07.178Z,58.45
2023-04-11T16:37:42.762Z,59.71
2023-04-11T16:40:13.199Z,59.72
2023-04-11T16:43:11.694Z,60.60
2023-04-11T16:45:40.160Z,61.00
2023-04-11T16:48:13.326Z,61.52
2023-04-11T16:50:41.736Z,62.60
2023-04-11T16:53:09.955Z,62.97
2023-04-11T16:55:38.120Z,64.10
2023-04-11T16:58:06.280Z,64.44
2023-04-11T17:00:34.220Z,64.93
2023-04-11T17:03:06.530Z,65.46
2023-04-11T17:05:36.280Z,65.94
2023-04-11T17:08:04.046Z,66.46
2023-04-11T17:10:31.972Z,67.28
2023-04-11T17:12:59.797Z,67.75
2023-04-11T17:15:28.011Z,68.21
2023-04-11T17:17:56.285Z,69.07
2023-04-11T17:20:24.760Z,69.53
2023-04-11T17:22:54.181Z,69.64
2023-04-11T17:25:22.134Z,70.42
2023-04-11T17:27:50.240Z,70.78
2023-04-11T17:30:18.507Z,71.00
2023-04-11T17:32:47.797Z,71.61
2023-04-11T17:35:16.699Z,72.09
2023-04-11T17:37:45.252Z,72.14
2023-04-11T17:40:13.469Z,72.44
2023-04-11T17:46:07.117Z,73.63
2023-04-11T17:52:15.442Z,75.01
2023-04-11T17:54:55.754Z,75.75
2023-04-11T17:57:25.421Z,76.44
2023-04-11T18:00:25.139Z,77.74
2023-04-11T18:03:17.076Z,78.13
2023-04-11T18:06:25.250Z,78.46
2023-04-11T18:08:53.246Z,78.75
2023-04-11T18:11:21.478Z,79.05
2023-04-11T18:13:50.530Z,79.34
2023-04-11T18:16:19.077Z,80.06
2023-04-11T18:18:48.476Z,79.95
2023-04-11T18:21:17.048Z,80.74
2023-04-11T18:23:45.068Z,80.57
2023-04-11T18:26:12.911Z,80.61
2023-04-11T18:28:41.083Z,80.79
2023-04-11T18:31:09.795Z,81.15
2023-04-11T18:33:59.083Z,81.55
2023-04-11T18:36:26.409Z,81.82
2023-04-11T18:38:58.214Z,81.79
2023-04-11T18:41:26.868Z,82.41
2023-04-11T18:43:55.341Z,82.44
2023-04-11T18:46:23.404Z,82.76
2023-04-11T18:48:51.373Z,82.93
2023-04-11T18:51:20.174Z,83.67
2023-04-11T18:53:48.185Z,83.98
2023-04-11T18:56:16.432Z,84.27
2023-04-11T18:58:46.693Z,84.76
2023-04-11T19:01:17.842Z,84.68
2023-04-11T20:25:32.961Z,88.66
2023-04-11T20:27:59.929Z,88.62
2023-04-11T20:30:26.596Z,88.95
2023-04-11T20:32:54.111Z,88.85
2023-04-11T20:35:20.806Z,89.21
2023-04-11T20:37:47.218Z,89.50
2023-04-11T20:40:14.524Z,89.75
2023-04-11T20:42:43.841Z,89.78
2023-04-11T20:45:19.372Z,90.04
2023-04-11T20:47:45.948Z,90.23
2023-04-11T20:50:13.299Z,90.61
2023-04-11T20:52:40.819Z,90.23
2023-04-11T20:55:08.247Z,90.27
2023-04-11T20:57:34.588Z,90.37
2023-04-11T21:00:03.209Z,90.67
2023-04-11T21:02:31.144Z,91.13
2023-04-11T21:04:57.644Z,91.07
2023-04-11T21:07:24.162Z,91.48
2023-04-11T21:09:50.715Z,91.82
2023-04-11T21:12:17.058Z,92.01
2023-04-11T21:14:43.615Z,92.26
2023-04-11T21:17:10.239Z,92.54
2023-04-11T21:19:36.920Z,92.40
2023-04-11T21:22:03.915Z,92.73
2023-04-11T21:24:31.194Z,92.78
2023-04-11T21:26:57.724Z,93.16
2023-04-11T21:29:24.059Z,93.50
2023-04-11T21:31:50.488Z,93.64
2023-04-11T21:34:16.879Z,93.48
2023-04-11T21:36:43.207Z,93.72
2023-04-11T21:39:09.639Z,93.66
2023-04-11T21:41:36.297Z,93.81
2023-04-11T21:44:02.631Z,94.23
2023-04-11T21:46:29.115Z,94.42
2023-04-11T21:48:55.503Z,94.29
2023-04-11T21:51:21.897Z,94.27
2023-04-11T21:53:48.290Z,94.42
2023-04-11T21:56:14.640Z,94.39
2023-04-11T21:58:40.927Z,94.71
2023-04-11T22:01:09.469Z,94.65
2023-04-11T22:03:35.849Z,94.85
2023-04-11T22:06:02.232Z,94.95
2023-04-11T22:08:28.591Z,95.08
2023-04-11T22:10:55.605Z,94.98
2023-04-11T22:13:22.198Z,95.27
2023-04-11T22:15:49.143Z,95.49
2023-04-11T22:18:15.395Z,95.57
2023-04-11T22:20:42.868Z,95.44
2023-04-11T22:23:09.679Z,95.77
2023-04-11T22:25:36.542Z,95.67
2023-04-11T22:28:02.925Z,95.71
2023-04-11T22:30:29.593Z,95.51
2023-04-11T22:32:56.111Z,95.59
2023-04-11T22:35:22.591Z,95.66
2023-04-11T22:37:48.937Z,95.70
2023-04-11T22:40:15.352Z,95.82
2023-04-11T22:42:41.819Z,95.81
2023-04-11T22:45:08.463Z,95.79
2023-04-11T22:47:34.836Z,95.78
2023-04-11T22:50:01.318Z,95.66
2023-04-11T22:52:27.637Z,95.42
2023-04-11T22:54:54.124Z,95.69
2023-04-11T22:57:20.532Z,95.67
2023-04-11T22:59:46.994Z,95.90
2023-04-11T23:02:13.355Z,95.91
2023-04-11T23:04:39.734Z,96.08
2023-04-11T23:07:06.068Z,96.03
2023-04-11T23:09:32.487Z,95.97
2023-04-11T23:11:58.839Z,95.73
2023-04-11T23:14:27.940Z,95.74
2023-04-11T23:16:54.301Z,95.87
2023-04-11T23:19:20.785Z,95.86
2023-04-11T23:21:47.313Z,95.78
2023-04-11T23:24:13.723Z,95.94
2023-04-11T23:26:40.098Z,96.05
2023-04-11T23:29:06.450Z,95.99
2023-04-11T23:31:32.970Z,95.87
2023-04-11T23:33:59.697Z,95.69
2023-04-11T23:36:26.632Z,95.78
2023-04-11T23:38:53.130Z,96.05
2023-04-11T23:41:19.466Z,96.09
2023-04-11T23:43:45.899Z,95.80
2023-04-11T23:46:13.025Z,96.08
2023-04-11T23:48:39.691Z,96.14
2023-04-11T23:51:06.174Z,96.19
2023-04-11T23:53:32.631Z,96.27
2023-04-11T23:56:02.170Z,96.16
2023-04-11T23:58:28.653Z,96.38
